Time;durP1;ratioP1;P1;durP2;ratioP2;P2;SDS_P1;SDS_P2;PMS_P1;PMS_P2;Temp;Humidity;BMP_temperature;BMP_pressure;BME280_temperature;BME280_humidity;BME280_pressure;Samples;Min_cycle;Max_cycle;Signal;HPM_P1;HPM_P2
2021/04/26 00:04:19;;;;;;;3.38;1.25;;;;;;;1.23;62.24;100775.97;10552972;28;20044;-68
2021/04/26 00:09:20;;;;;;;2.70;1.20;;;;;;;1.21;62.08;100762.13;10551781;28;20497;-69
2021/04/26 00:14:22;;;;;;;1.90;1.27;;;;;;;0.95;62.30;100774.59;10526067;28;20044;-69
2021/04/26 00:19:23;;;;;;;2.30;1.10;;;;;;;1.07;61.61;100762.75;10544860;28;20052;-70
2021/04/26 00:24:24;;;;;;;2.38;1.00;;;;;;;1.10;61.01;100773.13;10526960;28;20086;-69
2021/04/26 00:29:26;;;;;;;2.83;1.10;;;;;;;0.62;62.96;100768.75;10526514;28;20048;-69
2021/04/26 00:34:27;;;;;;;2.92;1.13;;;;;;;0.72;63.07;100769.00;10544461;28;20036;-69
2021/04/26 00:39:28;;;;;;;2.33;1.15;;;;;;;0.57;63.06;100750.56;10510799;28;20135;-69
2021/04/26 00:44:29;;;;;;;3.58;1.10;;;;;;;0.71;62.72;100761.19;10544537;28;20477;-69
2021/04/26 00:49:30;;;;;;;2.70;0.90;;;;;;;0.77;61.39;100758.72;10543822;28;20122;-68
2021/04/26 00:54:32;;;;;;;2.30;1.00;;;;;;;0.54;61.93;100750.50;10544678;28;20060;-68
2021/04/26 00:59:34;;;;;;;4.45;1.10;;;;;;;0.56;61.93;100754.00;10544562;28;20072;-68
2021/04/26 01:04:36;;;;;;;1.65;0.88;;;;;;;0.17;63.41;100764.34;10542591;28;20075;-69
2021/04/26 01:09:38;;;;;;;2.60;0.90;;;;;;;0.03;63.97;100756.31;10543641;28;20044;-69
2021/04/26 01:14:58;;;;;;;1.20;1.10;;;;;;;0.10;64.08;100757.31;10524102;28;20036;-69
2021/04/26 01:20:50;;;;;;;2.00;1.30;;;;;;;0.19;64.19;100765.28;10524262;28;20048;-69
2021/04/26 01:25:52;;;;;;;2.65;1.15;;;;;;;0.14;64.03;100760.00;10523421;28;20066;-70
2021/04/26 01:30:58;;;;;;;1.50;1.38;;;;;;;0.16;63.96;100767.78;10523745;28;20046;-70
2021/04/26 01:36:19;;;;;;;2.70;1.50;;;;;;;0.53;61.94;100753.03;10524768;28;20047;-69
2021/04/26 01:41:27;;;;;;;2.30;1.27;;;;;;;0.46;62.43;100759.81;10523801;28;20485;-70
2021/04/26 01:46:31;;;;;;;2.28;1.50;;;;;;;-0.09;63.80;100759.50;10541680;28;20036;-70
2021/04/26 01:51:34;;;;;;;3.42;1.35;;;;;;;-0.15;63.97;100761.94;10541731;28;20032;-70
2021/04/26 01:56:37;;;;;;;3.38;1.52;;;;;;;0.03;64.52;100760.59;10541233;28;20059;-70
2021/04/26 02:01:43;;;;;;;1.88;1.30;;;;;;;-0.05;64.33;100752.66;10541294;28;20040;-69
2021/04/26 02:06:48;;;;;;;5.30;1.50;;;;;;;-0.24;64.84;100756.53;10522425;28;20071;-69
2021/04/26 02:12:10;;;;;;;4.75;1.65;;;;;;;-0.06;64.96;100751.78;10541074;28;20044;-69
2021/04/26 02:17:16;;;;;;;3.95;1.80;;;;;;;0.17;64.01;100744.53;10522157;28;20044;-69
2021/04/26 02:22:19;;;;;;;3.97;1.92;;;;;;;-0.03;64.42;100730.34;10505616;28;20546;-69
2021/04/26 02:27:27;;;;;;;4.95;2.63;;;;;;;0.00;64.10;100743.34;10541065;28;20089;-68
2021/04/26 02:32:38;;;;;;;7.28;2.30;;;;;;;-0.25;65.26;100739.31;10505211;28;20473;-69
2021/04/26 02:38:13;;;;;;;6.50;2.92;;;;;;;-0.18;65.33;100745.47;10529045;28;20048;-69
2021/04/26 02:43:16;;;;;;;4.00;2.70;;;;;;;-0.38;66.07;100745.03;10521678;28;20043;-70
2021/04/26 02:48:20;;;;;;;4.80;2.75;;;;;;;-0.09;65.71;100741.41;10521319;28;20090;-69
2021/04/26 02:53:30;;;;;;;4.95;3.17;;;;;;;-0.63;67.10;100740.97;10521605;28;20093;-70
2021/04/26 02:58:34;;;;;;;3.40;2.92;;;;;;;-0.85;67.47;100735.25;10521386;28;20048;-69
2021/04/26 03:03:42;;;;;;;4.20;3.38;;;;;;;-0.82;67.09;100742.22;10521876;28;20044;-70
2021/04/26 03:08:46;;;;;;;3.78;3.30;;;;;;;-0.84;67.32;100729.28;10540040;28;20089;-69
2021/04/26 03:13:48;;;;;;;8.20;2.58;;;;;;;-0.76;67.56;100729.44;10504220;28;20044;-70
2021/04/26 03:18:51;;;;;;;3.67;2.70;;;;;;;-0.78;67.72;100734.59;10521013;28;20138;-70
2021/04/26 03:23:55;;;;;;;6.72;3.40;;;;;;;-0.57;66.93;100723.94;10538676;28;20063;-70
2021/04/26 03:28:58;;;;;;;7.38;4.25;;;;;;;-0.43;66.96;100719.09;10520325;28;20070;-71
2021/04/26 03:34:01;;;;;;;6.13;3.90;;;;;;;-0.49;66.39;100716.34;10520119;28;20521;-69
2021/04/26 03:39:10;;;;;;;5.10;3.88;;;;;;;-0.91;67.55;100714.47;10520402;28;20047;-69
2021/04/26 03:44:14;;;;;;;4.95;3.67;;;;;;;-0.98;67.65;100711.69;10538806;28;20040;-69
2021/04/26 03:49:45;;;;;;;4.28;3.63;;;;;;;-1.00;68.90;100715.94;10546043;28;20055;-69
2021/04/26 03:55:10;;;;;;;5.50;4.35;;;;;;;-0.84;68.85;100713.78;10546397;28;20436;-70
2021/04/26 04:00:13;;;;;;;6.97;5.90;;;;;;;-1.15;70.53;100719.88;10530425;28;20490;-70
2021/04/26 04:05:24;;;;;;;7.85;7.15;;;;;;;-1.20;71.01;100721.44;10546356;28;20048;-69
2021/04/26 04:10:48;;;;;;;8.68;7.80;;;;;;;-1.22;72.09;100723.13;10545772;28;20044;-69
2021/04/26 04:16:28;;;;;;;8.18;7.53;;;;;;;-1.38;72.55;100710.63;10545774;28;20071;-69
2021/04/26 04:21:31;;;;;;;10.60;9.70;;;;;;;-1.30;72.98;100714.28;10545456;28;20432;-70
2021/04/26 04:26:32;;;;;;;9.25;8.55;;;;;;;-1.30;73.39;100714.28;10529242;28;20055;-70
2021/04/26 04:31:40;;;;;;;10.20;9.40;;;;;;;-1.30;73.72;100709.13;10529117;28;20515;-70
2021/04/26 04:37:03;;;;;;;10.60;9.60;;;;;;;-1.25;73.76;100707.53;10530768;28;20064;-70
2021/04/26 04:42:23;;;;;;;10.15;9.25;;;;;;;-1.13;73.86;100707.00;10547443;28;20048;-70
2021/04/26 04:47:25;;;;;;;11.25;10.35;;;;;;;-1.05;73.79;100708.94;10529677;28;20139;-69
2021/04/26 04:52:26;;;;;;;21.88;19.75;;;;;;;-0.92;73.68;100704.97;10528468;28;20044;-71
2021/04/26 04:57:27;;;;;;;14.85;12.38;;;;;;;-0.76;73.55;100708.81;10546012;28;20122;-70
2021/04/26 05:02:29;;;;;;;12.43;11.43;;;;;;;-0.63;73.08;100704.81;10546251;28;20131;-69
2021/04/26 05:07:50;;;;;;;11.60;10.68;;;;;;;-0.48;72.63;100704.31;10515099;28;20051;-71
2021/04/26 05:13:10;;;;;;;10.07;9.27;;;;;;;-0.14;72.01;100699.06;10546527;28;20040;-70
2021/04/26 05:18:17;;;;;;;12.77;11.48;;;;;;;-0.02;71.33;100694.16;10557421;22;20093;-74
2021/04/26 05:23:18;;;;;;;12.40;11.20;;;;;;;0.14;70.92;100692.81;10546731;28;20069;-75
2021/04/26 05:28:24;;;;;;;13.60;12.40;;;;;;;0.46;70.28;100692.56;10547825;28;20508;-74
2021/04/26 05:33:29;;;;;;;13.80;12.65;;;;;;;0.22;71.43;100693.84;10546778;28;20072;-74
2021/04/26 05:38:31;;;;;;;14.90;13.30;;;;;;;0.45;71.13;100693.44;10546596;28;20050;-74
2021/04/26 05:43:38;;;;;;;13.35;12.15;;;;;;;0.63;70.93;100682.56;10570613;28;20043;-73
2021/04/26 05:48:40;;;;;;;12.13;10.95;;;;;;;1.26;69.49;100679.34;10570619;28;20108;-74
2021/04/26 05:53:42;;;;;;;11.52;10.52;;;;;;;1.11;68.86;100681.69;10588478;28;20452;-73
2021/04/26 05:58:43;;;;;;;14.05;8.80;;;;;;;1.83;67.38;100675.88;10588558;28;20090;-74
2021/04/26 06:03:45;;;;;;;8.77;7.97;;;;;;;2.63;65.22;100671.69;10590030;28;20085;-74
2021/04/26 06:08:46;;;;;;;7.82;7.03;;;;;;;3.43;62.26;100661.13;10588127;28;20093;-73
2021/04/26 06:13:47;;;;;;;8.40;6.45;;;;;;;3.95;60.87;100656.28;10588139;28;20036;-74
2021/04/26 06:18:49;;;;;;;9.10;5.82;;;;;;;4.59;57.67;100659.97;10569810;28;20054;-73
2021/04/26 06:23:51;;;;;;;7.15;6.18;;;;;;;4.60;57.56;100661.69;10590006;28;20039;-73
2021/04/26 06:28:53;;;;;;;6.15;5.55;;;;;;;4.32;56.84;100664.22;10571540;28;20047;-74
2021/04/26 06:33:54;;;;;;;7.38;5.10;;;;;;;5.21;56.05;100648.75;10569417;28;20078;-73
2021/04/26 06:38:56;;;;;;;9.20;6.30;;;;;;;5.48;55.38;100645.25;10571371;28;20075;-73
2021/04/26 06:43:58;;;;;;;7.20;5.45;;;;;;;5.76;54.17;100641.75;10571006;28;20051;-74
2021/04/26 06:49:01;;;;;;;7.30;4.90;;;;;;;5.64;53.23;100633.09;10569871;28;20567;-74
2021/04/26 06:54:02;;;;;;;8.80;4.47;;;;;;;5.82;52.54;100626.06;10569921;28;20123;-73
2021/04/26 06:59:07;;;;;;;4.20;3.70;;;;;;;6.65;50.50;100624.88;10589484;28;20046;-74
2021/04/26 07:04:09;;;;;;;5.13;3.35;;;;;;;6.80;50.07;100625.63;10569554;28;20412;-74
2021/04/26 07:09:10;;;;;;;5.30;3.95;;;;;;;6.83;49.66;100627.34;10587807;28;20055;-73
2021/04/26 07:14:15;;;;;;;8.27;5.57;;;;;;;6.86;50.31;100623.81;10570341;28;20040;-72
2021/04/26 07:19:16;;;;;;;6.18;4.25;;;;;;;6.66;50.56;100632.69;10569542;28;20047;-70
2021/04/26 07:24:17;;;;;;;10.15;5.07;;;;;;;7.13;49.50;100627.97;10595369;28;20039;-70
2021/04/26 07:29:19;;;;;;;4.80;3.90;;;;;;;7.48;46.91;100625.94;10593940;28;20051;-71
2021/04/26 07:34:20;;;;;;;4.88;3.08;;;;;;;7.61;45.89;100639.75;10595025;28;20043;-71
2021/04/26 07:39:21;;;;;;;5.95;3.63;;;;;;;7.55;46.65;100632.81;10591790;28;20073;-71
2021/04/26 07:44:23;;;;;;;12.50;3.03;;;;;;;7.32;46.56;100632.19;10575539;28;20092;-71
2021/04/26 07:49:25;;;;;;;4.25;3.30;;;;;;;7.53;47.26;100631.13;10592295;28;20048;-71
2021/04/26 07:54:27;;;;;;;12.55;2.75;;;;;;;7.92;45.81;100637.66;10593421;28;20112;-72
2021/04/26 07:59:29;;;;;;;4.18;2.25;;;;;;;8.04;44.27;100631.44;10592008;28;20089;-71
2021/04/26 08:04:30;;;;;;;1.50;1.27;;;;;;;8.13;40.67;100623.47;10593551;28;20050;-71
2021/04/26 08:09:31;;;;;;;1.70;1.23;;;;;;;8.19;41.35;100620.78;10574607;28;20090;-72
2021/04/26 08:14:33;;;;;;;1.52;1.05;;;;;;;8.78;39.39;100613.00;10572897;28;20063;-72
2021/04/26 08:19:35;;;;;;;4.25;1.23;;;;;;;8.94;38.25;100617.13;10589035;28;20047;-72
2021/04/26 08:24:36;;;;;;;1.50;0.90;;;;;;;9.07;39.85;100613.44;10563430;28;20078;-71
2021/04/26 08:29:38;;;;;;;1.13;0.88;;;;;;;9.09;36.55;100610.75;10573020;28;20040;-71
2021/04/26 08:34:40;;;;;;;1.40;0.80;;;;;;;9.84;36.41;100607.66;10555991;28;20192;-70
2021/04/26 08:39:41;;;;;;;0.93;0.50;;;;;;;9.83;35.46;100600.69;10591451;28;20054;-72
2021/04/26 08:44:43;;;;;;;2.13;0.65;;;;;;;10.01;34.11;100599.44;10590793;28;20032;-71
2021/04/26 08:49:45;;;;;;;0.82;0.65;;;;;;;10.37;35.63;100591.72;10574691;28;20097;-71
2021/04/26 08:54:46;;;;;;;3.08;0.70;;;;;;;10.08;34.41;100597.53;10571908;28;20066;-71
2021/04/26 08:59:47;;;;;;;1.15;0.60;;;;;;;10.31;34.00;100595.34;10571222;28;20130;-71
2021/04/26 09:04:55;;;;;;;1.42;0.70;;;;;;;11.43;33.96;100591.78;10590239;28;20040;-71
2021/04/26 09:09:57;;;;;;;0.90;0.60;;;;;;;11.42;35.59;100574.25;10588928;28;20055;-70
2021/04/26 09:15:00;;;;;;;1.13;1.02;;;;;;;11.30;36.76;100584.22;10570972;28;20105;-70
2021/04/26 09:20:17;;;;;;;1.30;0.47;;;;;;;10.44;34.87;100574.88;10571493;28;20561;-70
2021/04/26 09:25:20;;;;;;;;;;;;;;;10.83;34.83;100566.97;10571446;28;20053;-70
2021/04/26 09:30:41;;;;;;;0.88;0.38;;;;;;;10.16;33.11;100574.59;10571214;28;19969;-71
2021/04/26 09:35:42;;;;;;;3.45;0.52;;;;;;;10.59;35.40;100558.78;10589654;28;20061;-70
2021/04/26 09:41:20;;;;;;;1.95;0.60;;;;;;;10.48;34.83;100557.28;10588702;28;20075;-69
2021/04/26 09:46:36;;;;;;;1.40;0.38;;;;;;;10.68;32.60;100551.59;10571860;28;20158;-70
2021/04/26 09:51:39;;;;;;;2.55;0.57;;;;;;;10.31;34.59;100561.19;10589526;28;20057;-72
2021/04/26 09:56:46;;;;;;;0.38;0.30;;;;;;;11.06;34.18;100542.72;10588058;28;20093;-70
2021/04/26 10:01:50;;;;;;;1.70;0.82;;;;;;;11.33;34.15;100549.03;10587121;28;20040;-71
2021/04/26 10:06:52;;;;;;;0.45;0.45;;;;;;;10.94;32.59;100532.53;10588026;28;20054;-71
2021/04/26 10:11:54;;;;;;;1.23;0.63;;;;;;;10.62;33.81;100528.91;10553202;28;20135;-71
2021/04/26 10:17:06;;;;;;;2.15;0.63;;;;;;;10.33;34.20;100540.13;10587133;28;20069;-70
2021/04/26 10:22:08;;;;;;;0.47;0.30;;;;;;;9.88;34.96;100534.06;10586743;28;20036;-70
2021/04/26 10:27:10;;;;;;;1.77;0.68;;;;;;;10.90;35.19;100518.59;10568384;28;20043;-71
2021/04/26 10:32:14;;;;;;;3.65;0.70;;;;;;;10.66;33.70;100506.03;10585590;28;20537;-70
2021/04/26 10:37:17;;;;;;;1.63;0.70;;;;;;;9.97;34.20;100499.75;10586621;28;20451;-70
2021/04/26 10:42:29;;;;;;;1.23;0.60;;;;;;;10.28;35.96;100492.06;10586114;28;20040;-70
2021/04/26 10:47:34;;;;;;;1.08;0.47;;;;;;;10.82;34.13;100497.75;10567916;28;20062;-71
2021/04/26 10:52:41;;;;;;;6.30;0.90;;;;;;;11.41;33.45;100478.63;10585566;28;20073;-70
2021/04/26 10:57:51;;;;;;;1.85;0.70;;;;;;;11.19;34.44;100474.84;10586073;28;20067;-70
2021/04/26 11:03:00;;;;;;;2.55;0.95;;;;;;;10.88;32.64;100467.78;10585999;28;20085;-71
2021/04/26 11:08:13;;;;;;;1.52;0.65;;;;;;;11.80;33.03;100455.53;10585907;28;20054;-71
2021/04/26 11:13:35;;;;;;;1.90;0.57;;;;;;;12.03;33.17;100452.22;10585916;28;20043;-73
2021/04/26 11:19:00;;;;;;;2.05;0.68;;;;;;;11.71;33.04;100445.28;10591607;28;20047;-74
2021/04/26 11:24:01;;;;;;;2.50;0.60;;;;;;;11.24;32.98;100436.13;10591275;28;20039;-72
2021/04/26 11:29:05;;;;;;;2.55;0.52;;;;;;;11.01;33.40;100435.00;10573172;28;20412;-74
2021/04/26 11:34:17;;;;;;;1.75;0.40;;;;;;;10.46;34.39;100435.56;10592714;28;20443;-72
2021/04/26 11:39:21;;;;;;;1.92;0.50;;;;;;;10.23;33.99;100430.84;10592761;28;20048;-73
2021/04/26 11:44:31;;;;;;;1.35;0.52;;;;;;;9.63;34.86;100426.09;10572855;28;20044;-72
2021/04/26 11:49:42;;;;;;;1.50;0.85;;;;;;;10.49;34.07;100411.81;10591289;28;20047;-73
2021/04/26 11:54:50;;;;;;;1.90;0.80;;;;;;;10.74;33.91;100398.91;10572776;28;20073;-73
2021/04/26 12:00:00;;;;;;;0.90;0.80;;;;;;;11.28;34.48;100385.13;10589854;28;20055;-74
2021/04/26 12:05:05;;;;;;;3.40;0.77;;;;;;;11.46;32.55;100381.94;10541727;28;20503;-73
2021/04/26 12:10:15;;;;;;;2.08;0.70;;;;;;;11.68;32.89;100384.78;10542901;28;20043;-73
2021/04/26 12:15:20;;;;;;;0.80;0.40;;;;;;;11.90;32.67;100382.38;10560242;28;20097;-74
2021/04/26 12:20:35;;;;;;;1.10;0.50;;;;;;;12.08;31.47;100373.03;10539663;28;20071;-73
2021/04/26 12:25:39;;;;;;;1.60;0.50;;;;;;;11.42;33.17;100363.66;10538462;28;20036;-74
2021/04/26 12:30:41;;;;;;;0.73;0.50;;;;;;;11.92;31.49;100348.13;10550295;28;20043;-72
2021/04/26 12:35:43;;;;;;;3.47;0.80;;;;;;;11.43;33.18;100368.03;10583803;28;20040;-73
2021/04/26 12:40:50;;;;;;;1.55;0.60;;;;;;;10.91;34.31;100364.28;10555923;28;20068;-74
2021/04/26 12:45:51;;;;;;;4.32;1.77;;;;;;;10.56;34.13;100342.44;10555175;28;20472;-72
2021/04/26 12:50:53;;;;;;;1.95;0.60;;;;;;;10.35;34.54;100338.59;10534928;28;20121;-72
2021/04/26 12:56:00;;;;;;;1.65;0.70;;;;;;;10.59;32.95;100331.84;10554271;28;20516;-74
2021/04/26 13:01:01;;;;;;;2.17;0.70;;;;;;;11.05;34.41;100334.03;10553362;28;20097;-72
2021/04/26 13:06:08;;;;;;;1.15;0.60;;;;;;;10.98;31.54;100334.25;10536641;28;20105;-73
2021/04/26 13:11:35;;;;;;;0.80;0.50;;;;;;;11.23;33.17;100321.25;10535697;28;20148;-73
2021/04/26 13:16:41;;;;;;;2.47;0.53;;;;;;;11.16;31.94;100311.84;10539970;28;20562;-73
2021/04/26 13:21:44;;;;;;;1.48;0.47;;;;;;;11.10;32.15;100315.47;10551145;28;20101;-72
2021/04/26 13:26:58;;;;;;;3.90;0.80;;;;;;;11.34;31.09;100293.72;10556639;28;20072;-73
2021/04/26 13:32:04;;;;;;;1.10;0.50;;;;;;;11.22;31.22;100280.91;10552313;28;20040;-76
2021/04/26 13:37:05;;;;;;;0.95;0.60;;;;;;;11.17;31.13;100280.19;10553546;28;20126;-72
2021/04/26 13:42:08;;;;;;;5.30;0.80;;;;;;;11.19;32.61;100275.75;10534547;28;20044;-72
2021/04/26 13:47:09;;;;;;;1.52;0.57;;;;;;;10.68;30.32;100262.38;10549761;28;20123;-73
2021/04/26 13:52:11;;;;;;;7.25;1.10;;;;;;;10.60;32.44;100262.59;10548725;28;20079;-71
2021/04/26 13:57:12;;;;;;;0.52;0.40;;;;;;;10.43;29.79;100257.78;10548185;28;20040;-70
2021/04/26 14:02:14;;;;;;;1.23;0.45;;;;;;;10.61;30.04;100257.28;10548476;28;20432;-71
2021/04/26 14:07:16;;;;;;;0.73;0.50;;;;;;;10.48;30.50;100245.38;10545226;28;20052;-73
2021/04/26 14:12:17;;;;;;;2.88;0.70;;;;;;;10.55;30.22;100240.84;10526961;28;20123;-72
2021/04/26 14:17:18;;;;;;;3.38;0.70;;;;;;;10.66;30.60;100232.63;10544499;28;20043;-73
2021/04/26 14:22:20;;;;;;;1.80;0.60;;;;;;;10.61;31.42;100231.00;10545156;28;20119;-72
2021/04/26 14:27:22;;;;;;;1.67;0.60;;;;;;;10.63;31.07;100238.00;10510446;28;20052;-74
2021/04/26 14:32:23;;;;;;;3.08;0.70;;;;;;;10.42;31.12;100221.06;10544292;28;20040;-72
2021/04/26 14:37:25;;;;;;;2.15;0.60;;;;;;;10.31;31.56;100216.09;10545215;28;20470;-72
2021/04/26 14:42:26;;;;;;;2.10;0.50;;;;;;;10.46;30.03;100212.19;10544684;28;20036;-72
2021/04/26 14:47:28;;;;;;;2.78;0.60;;;;;;;10.56;31.79;100211.88;10527796;28;20048;-73
2021/04/26 14:52:30;;;;;;;0.98;0.60;;;;;;;10.41;31.34;100201.81;10559642;28;20042;-73
2021/04/26 14:57:32;;;;;;;2.30;0.70;;;;;;;10.26;31.18;100203.06;10591742;28;20043;-73
2021/04/26 15:02:34;;;;;;;3.25;0.82;;;;;;;10.22;31.29;100190.91;10570454;28;20039;-76
2021/04/26 15:07:37;;;;;;;2.53;0.82;;;;;;;10.20;31.64;100192.72;10583998;28;20127;-73
2021/04/26 15:12:39;;;;;;;2.70;0.70;;;;;;;10.32;31.26;100181.03;10581930;28;20431;-73
2021/04/26 15:17:43;;;;;;;1.20;0.82;;;;;;;10.24;31.50;100193.50;10584186;28;20051;-73
2021/04/26 15:23:05;;;;;;;1.60;0.60;;;;;;;9.90;32.62;100183.03;10585952;28;20045;-73
2021/04/26 15:28:10;;;;;;;1.33;0.70;;;;;;;9.94;31.81;100174.19;10557814;28;20097;-73
2021/04/26 15:33:13;;;;;;;4.72;1.20;;;;;;;10.10;31.70;100173.72;10508319;28;20056;-73
2021/04/26 15:38:14;;;;;;;2.92;1.02;;;;;;;10.00;32.13;100169.59;10542945;28;20048;-74
2021/04/26 15:43:16;;;;;;;0.68;0.68;;;;;;;10.03;31.24;100161.66;10527541;28;20089;-73
2021/04/26 15:48:17;;;;;;;1.83;0.65;;;;;;;9.96;31.89;100160.13;10549832;28;20044;-75
2021/04/26 15:53:20;;;;;;;1.88;0.80;;;;;;;9.81;31.70;100157.88;10549750;28;20040;-73
2021/04/26 15:58:21;;;;;;;1.55;0.95;;;;;;;9.65;31.61;100153.94;10532224;28;20066;-72
2021/04/26 16:03:22;;;;;;;2.30;0.82;;;;;;;9.67;32.04;100153.00;10532376;28;20048;-72
2021/04/26 16:08:24;;;;;;;2.28;0.95;;;;;;;9.64;30.81;100139.94;10533407;28;20472;-73
2021/04/26 16:13:26;;;;;;;3.03;1.50;;;;;;;9.74;31.25;100135.31;10515757;28;20040;-74
2021/04/26 16:18:27;;;;;;;3.78;2.88;;;;;;;9.74;31.28;100133.59;10549401;28;20051;-73
2021/04/26 16:23:29;;;;;;;35.92;17.88;;;;;;;9.67;30.78;100136.41;10530981;28;20382;-74
2021/04/26 16:28:30;;;;;;;3.70;1.45;;;;;;;9.54;31.51;100138.47;10549273;28;20052;-74
2021/04/26 16:33:31;;;;;;;4.25;0.80;;;;;;;9.48;30.89;100130.78;10549946;28;20067;-74
2021/04/26 16:38:33;;;;;;;2.55;1.30;;;;;;;9.42;31.78;100126.53;10549833;28;20047;-73
2021/04/26 16:43:34;;;;;;;1.17;0.77;;;;;;;9.40;31.89;100127.47;10549652;28;20080;-73
2021/04/26 16:48:35;;;;;;;3.42;0.95;;;;;;;9.24;31.91;100121.75;10530397;28;20131;-72
2021/04/26 16:53:44;;;;;;;1.95;0.90;;;;;;;9.05;31.43;100123.97;10547559;28;20055;-73
2021/04/26 16:58:45;;;;;;;2.35;0.60;;;;;;;9.04;31.85;100124.88;10549278;28;20043;-72
2021/04/26 17:03:46;;;;;;;1.95;0.93;;;;;;;8.94;31.77;100121.63;10547473;28;20097;-73
2021/04/26 17:08:47;;;;;;;3.35;1.13;;;;;;;8.79;32.29;100119.34;10546544;28;20044;-73
2021/04/26 17:13:49;;;;;;;1.48;0.75;;;;;;;8.73;32.16;100117.72;10547883;28;20040;-74
2021/04/26 17:18:53;;;;;;;3.10;1.00;;;;;;;8.69;33.10;100117.81;10546081;22;20245;-80
2021/04/26 17:23:57;;;;;;;1.70;0.93;;;;;;;8.73;33.81;100122.97;10526780;28;20092;-81
2021/04/26 17:28:58;;;;;;;1.65;0.80;;;;;;;8.63;33.80;100115.31;10518519;28;20044;-81
2021/04/26 17:34:00;;;;;;;1.38;0.50;;;;;;;8.37;34.18;100119.41;10523261;28;20449;-82
2021/04/26 17:39:04;;;;;;;1.85;0.80;;;;;;;8.27;34.32;100113.44;10516447;28;20064;-80
2021/04/26 17:44:06;;;;;;;2.08;0.60;;;;;;;8.22;34.22;100117.91;10515801;28;20090;-80
2021/04/26 17:49:08;;;;;;;1.25;0.65;;;;;;;8.12;34.67;100116.38;10530166;28;20048;-80
2021/04/26 17:54:09;;;;;;;0.80;0.70;;;;;;;8.07;34.49;100120.88;10541913;28;20044;-80
2021/04/26 17:59:10;;;;;;;2.35;0.70;;;;;;;7.98;35.40;100124.53;10558754;28;20044;-80
2021/04/26 18:04:11;;;;;;;1.85;0.55;;;;;;;7.78;35.27;100118.81;10560660;28;20096;-81
2021/04/26 18:09:12;;;;;;;1.33;0.80;;;;;;;7.71;35.26;100127.69;10559241;28;20046;-79
2021/04/26 18:14:14;;;;;;;1.60;0.75;;;;;;;7.77;35.77;100132.78;10578194;28;20047;-81
2021/04/26 18:19:19;;;;;;;1.27;0.80;;;;;;;7.56;36.19;100134.88;10559605;28;20039;-81
2021/04/26 18:24:20;;;;;;;1.80;0.73;;;;;;;7.36;35.89;100141.38;10586349;28;20052;-80
2021/04/26 18:29:23;;;;;;;1.45;0.80;;;;;;;7.37;36.00;100143.97;10570725;28;20043;-81
2021/04/26 18:34:24;;;;;;;0.80;0.60;;;;;;;7.43;36.41;100151.69;10585192;28;20055;-81
2021/04/26 18:39:25;;;;;;;3.80;0.73;;;;;;;7.33;36.60;100164.06;10566010;28;20050;-79
2021/04/26 18:44:27;;;;;;;1.50;0.90;;;;;;;7.30;36.70;100163.25;10566279;28;20065;-80
2021/04/26 18:49:28;;;;;;;1.33;0.68;;;;;;;7.08;37.63;100167.94;10564194;28;20052;-80
2021/04/26 18:54:34;;;;;;;0.93;0.50;;;;;;;7.13;37.08;100176.59;10549349;28;20074;-82
2021/04/26 18:59:35;;;;;;;2.28;0.95;;;;;;;6.95;37.40;100179.47;10580008;28;20059;-80
2021/04/26 19:04:39;;;;;;;4.00;0.90;;;;;;;6.82;37.57;100182.28;10566397;28;20170;-80
2021/04/26 19:09:41;;;;;;;1.23;0.80;;;;;;;6.82;37.58;100179.66;10581143;28;20048;-81
2021/04/26 19:14:46;;;;;;;1.23;0.93;;;;;;;6.71;38.03;100186.78;10540550;28;20044;-83
2021/04/26 19:19:48;;;;;;;1.65;0.82;;;;;;;6.90;38.01;100199.59;10558479;28;20066;-81
2021/04/26 19:24:50;;;;;;;1.98;1.08;;;;;;;6.65;38.37;100193.84;10566599;28;20032;-80
2021/04/26 19:29:51;;;;;;;3.08;0.73;;;;;;;6.41;39.15;100195.00;10570469;28;20066;-82
2021/04/26 19:34:52;;;;;;;3.55;0.98;;;;;;;6.37;39.00;100195.94;10551002;28;20079;-80
2021/04/26 19:39:54;;;;;;;1.58;0.75;;;;;;;6.21;39.81;100198.72;10564702;28;20035;-80
2021/04/26 19:44:56;;;;;;;1.85;0.90;;;;;;;6.15;38.95;100205.75;10563900;28;20102;-82
2021/04/26 19:49:58;;;;;;;1.40;1.10;;;;;;;6.16;39.24;100199.66;10568692;28;20070;-80
2021/04/26 19:54:59;;;;;;;1.85;0.88;;;;;;;6.17;39.52;100209.22;10556848;28;20059;-80
2021/04/26 20:00:00;;;;;;;2.08;1.00;;;;;;;6.05;40.02;100210.19;10572262;28;20043;-81
2021/04/26 20:05:10;;;;;;;2.55;0.82;;;;;;;5.70;41.05;100211.38;10585410;28;20040;-82
2021/04/26 20:10:13;;;;;;;2.35;1.20;;;;;;;5.64;41.77;100201.00;10567350;28;20105;-81
2021/04/26 20:15:16;;;;;;;1.83;1.40;;;;;;;5.55;42.58;100208.91;10578272;28;20113;-81
2021/04/26 20:20:18;;;;;;;2.22;1.00;;;;;;;5.76;42.52;100200.06;10541414;28;20058;-82
2021/04/26 20:25:21;;;;;;;3.40;0.90;;;;;;;5.69;40.63;100208.78;10554173;28;20116;-83
2021/04/26 20:30:24;;;;;;;1.75;1.00;;;;;;;5.61;41.92;100210.59;10552587;28;20058;-81
2021/04/26 20:35:27;;;;;;;2.17;1.02;;;;;;;5.12;43.88;100216.19;10552809;28;20044;-82
2021/04/26 20:40:30;;;;;;;5.45;1.15;;;;;;;5.42;43.81;100213.38;10568098;28;20040;-82
2021/04/26 20:45:32;;;;;;;1.50;0.88;;;;;;;5.16;41.53;100207.47;10527261;28;20471;-81
2021/04/26 20:50:34;;;;;;;1.52;1.02;;;;;;;4.99;41.62;100207.59;10537044;28;20048;-80
2021/04/26 20:55:35;;;;;;;4.85;1.42;;;;;;;4.90;44.91;100203.28;10561295;28;20077;-81
2021/04/26 21:00:37;;;;;;;2.97;1.05;;;;;;;5.09;43.45;100205.78;10559750;28;20043;-80
2021/04/26 21:05:38;;;;;;;3.80;1.00;;;;;;;4.77;43.21;100214.66;10561287;28;20075;-80
2021/04/26 21:10:39;;;;;;;2.08;1.02;;;;;;;4.70;44.63;100212.97;10570865;28;20044;-80
2021/04/26 21:15:40;;;;;;;4.28;1.27;;;;;;;4.19;45.78;100212.31;10558327;28;20037;-80
2021/04/26 21:20:41;;;;;;;1.40;1.27;;;;;;;4.02;46.60;100212.34;10524110;28;20060;-81
2021/04/26 21:25:42;;;;;;;1.73;1.10;;;;;;;4.40;45.30;100199.22;10558197;28;20500;-82
2021/04/26 21:30:44;;;;;;;4.32;1.20;;;;;;;4.21;44.92;100208.84;10562428;28;20089;-82
2021/04/26 21:35:45;;;;;;;2.28;1.17;;;;;;;3.76;47.19;100212.38;10558386;28;20051;-81
2021/04/26 21:40:46;;;;;;;2.83;1.25;;;;;;;3.83;47.02;100221.91;10539079;28;20059;-81
2021/04/26 21:45:48;;;;;;;1.65;1.23;;;;;;;3.85;46.44;100212.41;10558946;28;20043;-81
2021/04/26 21:50:49;;;;;;;2.00;1.00;;;;;;;3.87;46.73;100208.03;10539999;28;20044;-85
2021/04/26 21:55:51;;;;;;;4.05;1.20;;;;;;;3.85;47.91;100211.50;10541928;28;20098;-80
2021/04/26 22:00:52;;;;;;;2.03;1.20;;;;;;;3.78;47.06;100208.94;10568663;28;20055;-82
2021/04/26 22:05:53;;;;;;;2.13;1.05;;;;;;;3.44;49.01;100210.69;10568999;28;20116;-82
2021/04/26 22:10:55;;;;;;;3.03;1.25;;;;;;;3.39;49.84;100204.63;10567894;28;20048;-80
2021/04/26 22:15:57;;;;;;;6.28;1.35;;;;;;;3.53;48.83;100202.88;10573212;28;20040;-81
2021/04/26 22:20:58;;;;;;;2.30;1.08;;;;;;;3.10;49.29;100193.34;10533378;28;20056;-81
2021/04/26 22:26:00;;;;;;;4.53;1.25;;;;;;;2.96;50.00;100190.72;10546249;28;20044;-81
2021/04/26 22:31:01;;;;;;;9.45;1.55;;;;;;;3.22;50.49;100195.94;10545002;28;20070;-83
2021/04/26 22:36:03;;;;;;;3.83;1.40;;;;;;;3.11;50.23;100195.09;10565843;28;20071;-81
2021/04/26 22:41:05;;;;;;;3.85;1.63;;;;;;;2.88;50.68;100193.31;10569630;28;20048;-81
2021/04/26 22:46:07;;;;;;;3.75;1.10;;;;;;;2.91;50.72;100184.66;10541607;28;20066;-81
2021/04/26 22:51:08;;;;;;;2.45;1.40;;;;;;;2.61;51.52;100183.75;10540191;28;20052;-81
2021/04/26 22:56:09;;;;;;;1.70;1.33;;;;;;;2.80;51.54;100181.19;10539250;28;20119;-82
2021/04/26 23:01:10;;;;;;;3.42;1.80;;;;;;;2.70;52.29;100185.47;10545356;28;20052;-81
2021/04/26 23:06:12;;;;;;;4.00;1.60;;;;;;;2.21;53.23;100183.59;10562668;28;20119;-82
2021/04/26 23:11:13;;;;;;;3.28;1.35;;;;;;;2.06;53.75;100169.69;10555430;28;20059;-82
2021/04/26 23:16:14;;;;;;;4.82;1.40;;;;;;;2.49;52.26;100162.94;10571224;22;20040;-82
2021/04/26 23:21:16;;;;;;;3.80;1.42;;;;;;;2.05;53.94;100165.38;10598492;28;20043;-81
2021/04/26 23:26:17;;;;;;;2.10;1.33;;;;;;;2.42;54.12;100163.78;10580953;28;20035;-82
2021/04/26 23:31:19;;;;;;;1.48;1.20;;;;;;;2.15;54.29;100160.22;10605506;28;20069;-83